East Franklin, Vermont
Current Conditions -  °F | °C
As of 7:15 AM on Thursday 29 Jan 2015 (Local Time) from KFSO Reporting Station
Clear Clear  
Wind Chill: -17°   Ceiling: Unl
Heat Index: -4°   Visibility: 10mi
Dew Point: -9°   Wind: 6mph
Humidity: 79%   Direction: 140°SE
Pressure: 30.31"   Gusts: NA
Location:  44.9656°N, 72.8975°W
Report Text: KFSO 291215Z AUTO 14005KT 10SM CLR M20/M23 A3031 RMK AO2 T12011229
Loading
Personal Weather Stations






























Interactive Weather Map New forecast layout! Learn more

10-Day Weather Forecast

Advertisements
Track Severe Weather on mobile